Eckerman, Michigan
Current Conditions -  °F | °C
As of 11:14 PM on Tuesday 27 Jan 2015 (Local Time) from KERY Reporting Station
Clear Clear  
Wind Chill: -1°   Ceiling: Unl
Heat Index: -1°   Visibility: 10mi
Dew Point: -3°   Wind: 3mph
Humidity: 88%   Direction: 210°SSW
Pressure: 30.21"   Gusts: NA
Location:  46.37°N, 85.04°W
Report Text: KERY 280414Z AUTO 21003KT 10SM CLR M18/M20 A3021 RMK AO2 T11811197
Loading
Personal Weather Stations






























Interactive Weather Map New forecast layout! Learn more

10-Day Weather Forecast

Advertisements
Track Severe Weather on mobile